Time,TemperatureF,DewpointF,PressureIn,WindDirection,WindDirectionDegrees,WindSpeedMPH,WindSpeedGustMPH,Humidity,HourlyPrecipIn,Conditions,Clouds,dailyrainin,SoftwareType,DateUTC
2013-10-08 00:14:00,61.4,28.0,29.93,NW,326,0.0,-999.0,28,-99.99,,,0.00,weatherlink.com 1.10,2013-10-08 07:14:00,
2013-10-08 00:29:00,61.2,28.0,29.92,NW,326,0.0,-999.0,28,-99.99,,,0.00,weatherlink.com 1.10,2013-10-08 07:29:00,
2013-10-08 00:44:00,61.3,26.0,29.92,NNW,327,0.0,-999.0,26,-99.99,,,0.00,weatherlink.com 1.10,2013-10-08 07:44:00,
2013-10-08 00:59:00,61.1,27.0,29.93,NNW,327,0.0,-999.0,27,-99.99,,,0.00,weatherlink.com 1.10,2013-10-08 07:59:00,
2013-10-08 01:14:00,60.8,25.0,29.93,NNW,327,0.0,-999.0,26,-99.99,,,0.00,weatherlink.com 1.10,2013-10-08 08:14:00,
2013-10-08 01:29:00,61.1,27.0,29.93,NW,326,0.0,-999.0,27,-99.99,,,0.00,weatherlink.com 1.10,2013-10-08 08:29:00,
2013-10-08 01:44:00,60.9,27.0,29.93,NW,326,0.0,-999.0,28,-99.99,,,0.00,weatherlink.com 1.10,2013-10-08 08:44:00,
2013-10-08 01:59:00,60.7,25.0,29.93,NNW,327,0.0,-999.0,25,-99.99,,,0.00,weatherlink.com 1.10,2013-10-08 08:59:00,
2013-10-08 02:14:00,60.5,27.0,29.93,NNW,327,0.0,-999.0,28,-99.99,,,0.00,weatherlink.com 1.10,2013-10-08 09:14:00,
2013-10-08 02:29:00,59.6,25.0,29.92,NNW,327,0.0,-999.0,27,-99.99,,,0.00,weatherlink.com 1.10,2013-10-08 09:29:00,
2013-10-08 02:44:00,59.0,23.0,29.92,NNW,327,0.0,-999.0,25,-99.99,,,0.00,weatherlink.com 1.10,2013-10-08 09:44:00,
2013-10-08 02:59:00,59.0,23.0,29.91,NW,326,0.0,-999.0,25,-99.99,,,0.00,weatherlink.com 1.10,2013-10-08 09:59:00,
2013-10-08 03:14:00,59.1,23.0,29.91,NNW,327,0.0,-999.0,25,-99.99,,,0.00,weatherlink.com 1.10,2013-10-08 10:14:00,
2013-10-08 03:29:00,59.7,23.0,29.90,NNW,327,0.0,-999.0,24,-99.99,,,0.00,weatherlink.com 1.10,2013-10-08 10:29:00,
2013-10-08 03:44:00,59.9,24.0,29.90,NNW,327,0.0,-999.0,25,-99.99,,,0.00,weatherlink.com 1.10,2013-10-08 10:44:00,
2013-10-08 03:59:00,59.6,24.0,29.90,NNW,327,0.0,-999.0,25,-99.99,,,0.00,weatherlink.com 1.10,2013-10-08 10:59:00,
2013-10-08 04:14:00,59.4,23.0,29.90,North,355,0.0,-999.0,25,-99.99,,,0.00,weatherlink.com 1.10,2013-10-08 11:14:00,
2013-10-08 04:29:00,59.4,23.0,29.90,North,355,0.0,-999.0,25,-99.99,,,0.00,weatherlink.com 1.10,2013-10-08 11:29:00,
2013-10-08 04:44:00,59.0,23.0,29.90,North,355,0.0,-999.0,25,-99.99,,,0.00,weatherlink.com 1.10,2013-10-08 11:44:00,
2013-10-08 04:59:00,59.3,23.0,29.90,North,355,0.0,-999.0,25,-99.99,,,0.00,weatherlink.com 1.10,2013-10-08 11:59:00,
2013-10-08 05:14:00,59.6,24.0,29.90,North,355,0.0,-999.0,25,-99.99,,,0.00,weatherlink.com 1.10,2013-10-08 12:14:00,
2013-10-08 05:29:00,59.0,24.0,29.90,North,355,0.0,-999.0,26,-99.99,,,0.00,weatherlink.com 1.10,2013-10-08 12:29:00,
2013-10-08 05:44:00,58.1,23.0,29.90,North,355,0.0,-999.0,26,-99.99,,,0.00,weatherlink.com 1.10,2013-10-08 12:44:00,
2013-10-08 05:59:00,57.7,24.0,29.90,North,350,1.0,-999.0,27,-99.99,,,0.00,weatherlink.com 1.10,2013-10-08 12:59:00,
2013-10-08 06:14:00,55.3,35.0,29.90,North,349,0.0,-999.0,46,-99.99,,,0.00,weatherlink.com 1.10,2013-10-08 13:14:00,
2013-10-08 06:29:00,51.8,27.0,29.90,North,349,1.0,-999.0,38,-99.99,,,0.00,weatherlink.com 1.10,2013-10-08 13:29:00,
2013-10-08 06:44:00,52.3,23.0,29.89,North,360,0.0,-999.0,32,-99.99,,,0.00,weatherlink.com 1.10,2013-10-08 13:44:00,
2013-10-08 06:59:00,54.9,24.0,29.89,North,360,0.0,-999.0,30,-99.99,,,0.00,weatherlink.com 1.10,2013-10-08 13:59:00,
2013-10-08 07:14:00,55.8,23.0,29.89,North,9,0.0,-999.0,28,-99.99,,,0.00,weatherlink.com 1.10,2013-10-08 14:14:00,
2013-10-08 07:30:00,56.5,24.0,29.90,North,9,0.0,-999.0,28,-99.99,,,0.00,weatherlink.com 1.10,2013-10-08 14:30:00,
2013-10-08 07:45:00,57.0,24.0,29.90,North,9,1.0,-999.0,28,-99.99,,,0.00,weatherlink.com 1.10,2013-10-08 14:45:00,
2013-10-08 08:00:00,57.7,25.0,29.91,North,9,0.0,-999.0,29,-99.99,,,0.00,weatherlink.com 1.10,2013-10-08 15:00:00,
2013-10-08 08:15:00,57.6,26.0,29.91,North,9,0.0,-999.0,30,-99.99,,,0.00,weatherlink.com 1.10,2013-10-08 15:15:00,
2013-10-08 08:30:00,57.4,27.0,29.92,North,9,0.0,-999.0,31,-99.99,,,0.00,weatherlink.com 1.10,2013-10-08 15:30:00,
2013-10-08 08:45:00,58.2,30.0,29.91,North,9,0.0,-999.0,34,-99.99,,,0.00,weatherlink.com 1.10,2013-10-08 15:45:00,
2013-10-08 09:00:00,58.7,32.0,29.92,North,9,0.0,-999.0,37,-99.99,,,0.00,weatherlink.com 1.10,2013-10-08 16:00:00,
2013-10-08 09:15:00,59.9,30.0,29.91,North,9,0.0,-999.0,32,-99.99,,,0.00,weatherlink.com 1.10,2013-10-08 16:15:00,
2013-10-08 09:30:00,60.6,32.0,29.91,NNE,28,0.0,-999.0,34,-99.99,,,0.00,weatherlink.com 1.10,2013-10-08 16:30:00,
2013-10-08 09:45:00,61.0,36.0,29.91,NNE,28,0.0,-999.0,40,-99.99,,,0.00,weatherlink.com 1.10,2013-10-08 16:45:00,
2013-10-08 10:00:00,61.6,37.0,29.91,NNE,29,0.0,-999.0,41,-99.99,,,0.00,weatherlink.com 1.10,2013-10-08 17:00:00,
2013-10-08 10:30:00,54.8,44.0,29.92,NE,43,0.0,-999.0,67,-99.99,,,0.00,weatherlink.com 1.10,2013-10-08 17:30:00,
2013-10-08 10:45:00,54.2,43.0,29.92,NE,49,0.0,-999.0,67,-99.99,,,0.00,weatherlink.com 1.10,2013-10-08 17:45:00,
2013-10-08 11:00:00,55.1,44.0,29.92,ENE,57,0.0,-999.0,67,-99.99,,,0.00,weatherlink.com 1.10,2013-10-08 18:00:00,
2013-10-08 11:15:00,59.0,47.0,29.91,East,80,0.0,-999.0,65,-99.99,,,0.00,weatherlink.com 1.10,2013-10-08 18:15:00,
2013-10-08 11:30:00,57.5,46.0,29.91,East,80,0.0,-999.0,66,-99.99,,,0.00,weatherlink.com 1.10,2013-10-08 18:30:00,
2013-10-08 11:45:00,56.5,46.0,29.91,East,82,0.0,-999.0,67,-99.99,,,0.00,weatherlink.com 1.10,2013-10-08 18:45:00,
2013-10-08 11:59:00,58.5,47.0,29.91,ESE,105,0.0,-999.0,66,-99.99,,,0.00,weatherlink.com 1.10,2013-10-08 18:59:00,
2013-10-08 12:14:00,57.5,47.0,29.91,ESE,117,0.0,-999.0,67,-99.99,,,0.00,weatherlink.com 1.10,2013-10-08 19:14:00,
2013-10-08 12:29:00,59.0,47.0,29.90,SE,125,0.0,-999.0,65,-99.99,,,0.00,weatherlink.com 1.10,2013-10-08 19:29:00,
2013-10-08 12:44:00,59.4,48.0,29.90,SE,136,0.0,-999.0,66,-99.99,,,0.00,weatherlink.com 1.10,2013-10-08 19:44:00,
2013-10-08 12:59:00,60.2,48.0,29.89,SE,125,0.0,-999.0,65,-99.99,,,0.00,weatherlink.com 1.10,2013-10-08 19:59:00,
2013-10-08 13:14:00,58.9,47.0,29.89,SE,130,0.0,-999.0,66,-99.99,,,0.00,weatherlink.com 1.10,2013-10-08 20:14:00,
2013-10-08 13:29:00,54.1,43.0,29.89,SW,215,0.0,-999.0,67,-99.99,,,0.00,weatherlink.com 1.10,2013-10-08 20:29:00,
2013-10-08 13:44:00,54.4,44.0,29.89,West,264,0.0,-999.0,67,-99.99,,,0.00,weatherlink.com 1.10,2013-10-08 20:44:00,
2013-10-08 13:59:00,57.4,46.0,29.88,WNW,286,0.0,-999.0,67,-99.99,,,0.00,weatherlink.com 1.10,2013-10-08 20:59:00,
2013-10-08 14:14:00,57.8,47.0,29.88,SW,232,0.0,-999.0,67,-99.99,,,0.00,weatherlink.com 1.10,2013-10-08 21:14:00,
2013-10-08 14:29:00,59.0,47.0,29.88,WSW,251,0.0,-999.0,65,-99.99,,,0.00,weatherlink.com 1.10,2013-10-08 21:29:00,
2013-10-08 14:44:00,58.2,47.0,29.87,SW,233,0.0,-999.0,67,-99.99,,,0.00,weatherlink.com 1.10,2013-10-08 21:44:00,
2013-10-08 14:59:00,54.8,44.0,29.87,WSW,254,0.0,-999.0,67,-99.99,,,0.00,weatherlink.com 1.10,2013-10-08 21:59:00,
2013-10-08 15:14:00,54.6,44.0,29.87,WSW,254,0.0,-999.0,68,-99.99,,,0.00,weatherlink.com 1.10,2013-10-08 22:14:00,
2013-10-08 15:29:00,51.6,41.0,29.87,WSW,255,0.0,-999.0,67,-99.99,,,0.00,weatherlink.com 1.10,2013-10-08 22:29:00,
2013-10-08 15:44:00,52.1,41.0,29.87,WSW,255,0.0,-999.0,66,-99.99,,,0.00,weatherlink.com 1.10,2013-10-08 22:44:00,
2013-10-08 15:59:00,51.7,40.0,29.87,WSW,255,1.0,-999.0,65,-99.99,,,0.00,weatherlink.com 1.10,2013-10-08 22:59:00,
2013-10-08 16:14:00,53.1,42.0,29.86,SW,231,0.0,-999.0,65,-99.99,,,0.00,weatherlink.com 1.10,2013-10-08 23:14:00,
2013-10-08 16:29:00,51.2,40.0,29.86,SW,232,0.0,-999.0,66,-99.99,,,0.00,weatherlink.com 1.10,2013-10-08 23:29:00,
2013-10-08 16:44:00,50.8,39.0,29.86,SW,232,0.0,-999.0,65,-99.99,,,0.00,weatherlink.com 1.10,2013-10-08 23:44:00,
2013-10-08 16:59:00,50.4,39.0,29.86,SW,232,0.0,-999.0,65,-99.99,,,0.00,weatherlink.com 1.10,2013-10-08 23:59:00,
2013-10-08 17:14:00,50.3,39.0,29.86,SW,232,0.0,-999.0,65,-99.99,,,0.00,weatherlink.com 1.10,2013-10-09 00:14:00,
2013-10-08 17:29:00,50.2,39.0,29.86,SW,232,0.0,-999.0,65,-99.99,,,0.00,weatherlink.com 1.10,2013-10-09 00:29:00,
2013-10-08 17:44:00,50.0,39.0,29.86,SW,232,0.0,-999.0,65,-99.99,,,0.00,weatherlink.com 1.10,2013-10-09 00:44:00,
2013-10-08 17:59:00,49.8,38.0,29.85,SW,232,0.0,-999.0,65,-99.99,,,0.00,weatherlink.com 1.10,2013-10-09 00:59:00,
2013-10-08 18:14:00,49.6,38.0,29.85,SW,232,0.0,-999.0,65,-99.99,,,0.00,weatherlink.com 1.10,2013-10-09 01:14:00,
2013-10-08 18:29:00,49.3,38.0,29.85,SW,230,0.0,-999.0,65,-99.99,,,0.00,weatherlink.com 1.10,2013-10-09 01:29:00,
2013-10-08 18:44:00,49.0,38.0,29.85,SW,229,0.0,-999.0,65,-99.99,,,0.00,weatherlink.com 1.10,2013-10-09 01:44:00,
2013-10-08 18:59:00,48.9,38.0,29.84,SW,229,0.0,-999.0,65,-99.99,,,0.00,weatherlink.com 1.10,2013-10-09 01:59:00,
2013-10-08 19:14:00,48.3,37.0,29.84,SW,231,0.0,-999.0,65,-99.99,,,0.00,weatherlink.com 1.10,2013-10-09 02:14:00,
2013-10-08 19:29:00,48.4,37.0,29.84,SW,230,0.0,-999.0,66,-99.99,,,0.00,weatherlink.com 1.10,2013-10-09 02:29:00,
2013-10-08 19:44:00,48.3,37.0,29.84,SW,230,0.0,-999.0,65,-99.99,,,0.00,weatherlink.com 1.10,2013-10-09 02:44:00,
2013-10-08 19:59:00,48.4,37.0,29.84,SW,231,0.0,-999.0,65,-99.99,,,0.00,weatherlink.com 1.10,2013-10-09 02:59:00,
2013-10-08 20:14:00,47.9,37.0,29.84,SW,232,0.0,-999.0,66,-99.99,,,0.00,weatherlink.com 1.10,2013-10-09 03:14:00,
2013-10-08 20:29:00,47.5,37.0,29.84,SW,232,0.0,-999.0,66,-99.99,,,0.00,weatherlink.com 1.10,2013-10-09 03:29:00,
2013-10-08 20:44:00,47.2,36.0,29.84,SW,232,0.0,-999.0,66,-99.99,,,0.00,weatherlink.com 1.10,2013-10-09 03:44:00,
2013-10-08 20:59:00,47.5,37.0,29.84,SW,232,0.0,-999.0,66,-99.99,,,0.00,weatherlink.com 1.10,2013-10-09 03:59:00,
2013-10-08 21:14:00,47.5,37.0,29.84,SW,232,0.0,-999.0,66,-99.99,,,0.00,weatherlink.com 1.10,2013-10-09 04:14:00,
2013-10-08 21:29:00,47.2,36.0,29.84,SW,232,0.0,-999.0,66,-99.99,,,0.00,weatherlink.com 1.10,2013-10-09 04:29:00,
2013-10-08 21:44:00,47.1,36.0,29.84,SW,232,0.0,-999.0,66,-99.99,,,0.00,weatherlink.com 1.10,2013-10-09 04:44:00,
2013-10-08 21:59:00,47.4,36.0,29.85,SW,232,0.0,-999.0,66,-99.99,,,0.00,weatherlink.com 1.10,2013-10-09 04:59:00,
2013-10-08 22:14:00,46.9,36.0,29.84,SW,222,0.0,-999.0,66,-99.99,,,0.00,weatherlink.com 1.10,2013-10-09 05:14:00,
2013-10-08 22:29:00,46.7,36.0,29.84,SW,222,0.0,-999.0,66,-99.99,,,0.00,weatherlink.com 1.10,2013-10-09 05:29:00,
2013-10-08 22:44:00,46.9,36.0,29.84,SW,222,0.0,-999.0,66,-99.99,,,0.00,weatherlink.com 1.10,2013-10-09 05:44:00,
2013-10-08 22:59:00,47.2,36.0,29.83,SW,222,0.0,-999.0,66,-99.99,,,0.00,weatherlink.com 1.10,2013-10-09 05:59:00,
2013-10-08 23:14:00,47.3,36.0,29.83,SW,222,0.0,-999.0,66,-99.99,,,0.00,weatherlink.com 1.10,2013-10-09 06:14:00,
2013-10-08 23:29:00,47.0,36.0,29.83,SW,222,0.0,-999.0,66,-99.99,,,0.00,weatherlink.com 1.10,2013-10-09 06:29:00,
2013-10-08 23:44:00,46.9,36.0,29.82,SW,222,0.0,-999.0,66,-99.99,,,0.00,weatherlink.com 1.10,2013-10-09 06:44:00,
2013-10-08 23:59:00,46.7,36.0,29.82,SW,222,0.0,-999.0,66,-99.99,,,0.00,weatherlink.com 1.10,2013-10-09 06:59:00,